createdAt,value
2017-11-30T00:00:19.860Z,0
2017-11-30T00:01:29.407Z,0
2017-11-30T00:02:39.246Z,0
2017-11-30T00:03:49.117Z,0
2017-11-30T00:04:59.213Z,0
2017-11-30T00:06:09.310Z,0
2017-11-30T00:07:19.789Z,0
2017-11-30T00:08:29.886Z,0
2017-11-30T00:09:39.746Z,0
2017-11-30T00:10:49.570Z,0
2017-11-30T00:11:59.402Z,0
2017-11-30T00:13:09.482Z,0
2017-11-30T00:14:19.533Z,0
2017-11-30T00:15:29.400Z,0
2017-11-30T00:16:39.481Z,0
2017-11-30T00:17:49.311Z,0
2017-11-30T00:18:59.389Z,0
2017-11-30T00:20:09.480Z,0
2017-11-30T00:21:19.062Z,0
2017-11-30T00:22:28.909Z,0
2017-11-30T00:23:38.987Z,0
2017-11-30T00:24:48.809Z,0
2017-11-30T00:25:58.110Z,0
2017-11-30T00:27:08.002Z,0
2017-11-30T00:28:17.848Z,0
2017-11-30T00:29:27.970Z,0
2017-11-30T00:30:37.775Z,0
2017-11-30T00:31:47.578Z,0
2017-11-30T00:32:57.657Z,0
2017-11-30T00:34:07.767Z,0
2017-11-30T00:35:17.630Z,0
2017-11-30T00:36:27.698Z,0
2017-11-30T00:37:37.762Z,0
2017-11-30T00:38:47.893Z,0
2017-11-30T00:39:57.710Z,0
2017-11-30T00:41:07.777Z,0
2017-11-30T00:42:17.849Z,0
2017-11-30T00:43:27.965Z,0
2017-11-30T00:44:38.037Z,0
2017-11-30T00:45:47.834Z,0
2017-11-30T00:46:57.660Z,0
2017-11-30T00:48:07.727Z,0
2017-11-30T00:49:17.273Z,0
2017-11-30T00:50:27.426Z,0
2017-11-30T00:51:36.955Z,0
2017-11-30T00:52:46.759Z,0
2017-11-30T00:53:56.570Z,0
2017-11-30T00:55:06.368Z,0
2017-11-30T00:56:16.499Z,0
2017-11-30T00:57:26.589Z,0
2017-11-30T00:58:36.375Z,0
2017-11-30T00:59:46.492Z,0
2017-11-30T01:00:56.581Z,0
2017-11-30T01:02:06.404Z,0
2017-11-30T01:03:16.491Z,0
2017-11-30T01:04:26.577Z,0
2017-11-30T01:05:36.374Z,0
2017-11-30T01:06:46.485Z,0
2017-11-30T01:07:56.067Z,0
2017-11-30T01:09:06.139Z,0
2017-11-30T01:10:16.232Z,0
2017-11-30T01:11:26.313Z,0
2017-11-30T01:12:35.856Z,0
2017-11-30T01:13:45.988Z,0
2017-11-30T01:14:56.088Z,0
2017-11-30T01:16:05.886Z,0
2017-11-30T01:17:15.696Z,0
2017-11-30T01:18:25.506Z,0
2017-11-30T01:19:35.581Z,0
2017-11-30T01:20:45.387Z,0
2017-11-30T01:21:55.468Z,0
2017-11-30T01:23:05.571Z,0
2017-11-30T01:24:15.391Z,0
2017-11-30T01:25:26.003Z,0
2017-11-30T01:26:36.115Z,0
2017-11-30T01:27:45.653Z,0
2017-11-30T01:28:55.744Z,0
2017-11-30T01:30:05.559Z,0
2017-11-30T01:31:15.343Z,0
2017-11-30T01:32:25.425Z,0
2017-11-30T01:33:35.254Z,0
2017-11-30T01:34:45.072Z,0
2017-11-30T01:35:56.831Z,0
2017-11-30T01:37:06.925Z,0
2017-11-30T01:38:16.474Z,0
2017-11-30T01:39:26.563Z,0
2017-11-30T01:40:36.393Z,0
2017-11-30T01:41:46.473Z,0
2017-11-30T01:42:56.584Z,0
2017-11-30T01:44:06.377Z,0
2017-11-30T01:45:16.691Z,0
2017-11-30T01:46:26.520Z,0
2017-11-30T01:47:36.600Z,0
2017-11-30T01:48:46.736Z,0
2017-11-30T01:49:56.826Z,0
2017-11-30T01:51:06.378Z,0
2017-11-30T01:52:17.092Z,0
2017-11-30T01:53:27.170Z,0
2017-11-30T01:54:36.973Z,0
2017-11-30T01:55:47.054Z,0
2017-11-30T01:56:57.126Z,0
2017-11-30T01:58:07.250Z,0
2017-11-30T01:59:17.408Z,0
2017-11-30T02:00:27.261Z,0
2017-11-30T02:01:36.531Z,0
2017-11-30T02:02:46.075Z,0
2017-11-30T02:03:56.164Z,0
2017-11-30T02:05:05.990Z,0
2017-11-30T02:06:16.070Z,0
2017-11-30T02:07:25.605Z,0
2017-11-30T02:08:35.669Z,0
2017-11-30T02:09:45.754Z,0
2017-11-30T02:10:55.825Z,0
2017-11-30T02:12:05.422Z,0
2017-11-30T02:13:15.230Z,0
2017-11-30T02:14:25.072Z,0
2017-11-30T02:15:35.155Z,0
2017-11-30T02:16:44.950Z,0
2017-11-30T02:17:55.022Z,0
2017-11-30T02:19:05.100Z,0
2017-11-30T02:20:14.902Z,0
2017-11-30T02:21:24.713Z,0
2017-11-30T02:22:34.759Z,0
2017-11-30T02:23:44.349Z,0
2017-11-30T02:24:54.427Z,0
2017-11-30T02:26:04.501Z,0
2017-11-30T02:27:14.307Z,0
2017-11-30T02:28:25.147Z,0
2017-11-30T02:29:34.411Z,0
2017-11-30T02:30:44.505Z,0
2017-11-30T02:31:54.312Z,0
2017-11-30T02:33:04.381Z,0
2017-11-30T02:34:14.481Z,0
2017-11-30T02:35:24.607Z,0
2017-11-30T02:36:34.668Z,0
2017-11-30T02:37:44.490Z,0
2017-11-30T02:38:54.579Z,0
2017-11-30T02:40:04.671Z,0
2017-11-30T02:41:14.820Z,0
2017-11-30T02:42:24.894Z,0
2017-11-30T02:43:34.703Z,0
2017-11-30T02:44:44.766Z,0
2017-11-30T02:45:54.593Z,0
2017-11-30T02:47:04.433Z,0
2017-11-30T02:48:14.249Z,0
2017-11-30T02:49:24.084Z,0
2017-11-30T02:50:33.900Z,0
2017-11-30T02:51:43.982Z,0
2017-11-30T02:52:53.794Z,0
2017-11-30T02:54:03.595Z,0
2017-11-30T02:55:13.940Z,0
2017-11-30T02:56:23.485Z,0
2017-11-30T02:57:33.286Z,0
2017-11-30T02:58:43.364Z,0
2017-11-30T02:59:53.743Z,0
2017-11-30T03:01:03.926Z,0
2017-11-30T03:02:14.000Z,0
2017-11-30T03:34:21.767Z,0
2017-11-30T03:35:31.804Z,0
2017-11-30T03:36:41.612Z,0
2017-11-30T03:37:51.421Z,0
2017-11-30T03:39:01.523Z,0
2017-11-30T03:40:11.401Z,0
2017-11-30T03:41:21.491Z,0
2017-11-30T03:42:31.014Z,0
2017-11-30T03:43:40.825Z,0
2017-11-30T03:44:50.894Z,0
2017-11-30T03:46:01.020Z,0
2017-11-30T03:47:11.092Z,0
2017-11-30T03:48:21.207Z,0
2017-11-30T03:49:31.005Z,0
2017-11-30T03:50:41.087Z,0
2017-11-30T03:51:51.154Z,0
2017-11-30T03:53:01.231Z,0
2017-11-30T03:54:11.027Z,0
2017-11-30T03:55:20.826Z,0
2017-11-30T03:56:30.615Z,0
2017-11-30T03:57:40.418Z,0
2017-11-30T03:58:50.489Z,0
2017-11-30T04:00:00.288Z,0
2017-11-30T04:01:10.369Z,0
2017-11-30T04:02:20.189Z,0
2017-11-30T04:03:29.991Z,0
2017-11-30T04:04:39.797Z,0
2017-11-30T04:05:49.874Z,0
2017-11-30T04:06:59.944Z,0
2017-11-30T04:08:10.016Z,0
2017-11-30T04:09:19.883Z,0
2017-11-30T04:10:29.959Z,0
2017-11-30T04:11:40.028Z,0
2017-11-30T04:12:50.516Z,0
2017-11-30T04:14:00.626Z,0
2017-11-30T04:15:10.509Z,0
2017-11-30T04:16:20.595Z,0
2017-11-30T04:17:29.863Z,4
2017-11-30T04:18:39.952Z,4
2017-11-30T04:19:50.015Z,0
2017-11-30T04:20:59.544Z,4
2017-11-30T04:22:10.618Z,4
2017-11-30T04:23:20.432Z,4
2017-11-30T04:24:30.251Z,0
2017-11-30T04:25:40.321Z,0
2017-11-30T04:26:50.789Z,0
2017-11-30T04:28:00.599Z,0
2017-11-30T04:29:10.666Z,4
2017-11-30T04:30:20.748Z,4
2017-11-30T04:31:30.810Z,4
2017-11-30T04:32:40.697Z,4
2017-11-30T04:33:50.523Z,4
2017-11-30T04:35:00.342Z,4
2017-11-30T04:36:10.445Z,4
2017-11-30T04:37:20.258Z,4
2017-11-30T04:38:29.844Z,4
2017-11-30T04:39:39.650Z,4
2017-11-30T04:40:49.460Z,4
2017-11-30T04:41:59.515Z,4
2017-11-30T04:43:09.610Z,4
2017-11-30T04:44:19.417Z,4
2017-11-30T04:45:29.509Z,4
2017-11-30T04:46:39.339Z,4
2017-11-30T04:47:48.905Z,4
2017-11-30T04:48:58.730Z,4
2017-11-30T04:50:08.537Z,4
2017-11-30T04:51:18.609Z,4
2017-11-30T04:52:28.703Z,4
2017-11-30T04:53:38.507Z,4
2017-11-30T04:54:48.097Z,4
2017-11-30T04:55:57.692Z,4
2017-11-30T04:57:07.235Z,4
2017-11-30T04:58:18.906Z,4
2017-11-30T04:59:29.279Z,4
2017-11-30T05:00:39.352Z,4
2017-11-30T05:01:49.427Z,4
2017-11-30T05:02:59.260Z,4
2017-11-30T05:04:09.325Z,4
2017-11-30T05:05:19.389Z,4
2017-11-30T05:06:30.401Z,4
2017-11-30T05:07:40.206Z,4
2017-11-30T05:08:50.278Z,4
2017-11-30T05:10:00.090Z,4
2017-11-30T05:11:09.895Z,4
2017-11-30T05:12:19.974Z,4
2017-11-30T05:13:29.803Z,4
2017-11-30T05:14:39.902Z,4
2017-11-30T05:15:49.709Z,4
2017-11-30T05:16:59.797Z,4
2017-11-30T05:18:09.973Z,4
2017-11-30T05:19:19.814Z,4
2017-11-30T05:20:29.630Z,4
2017-11-30T05:21:39.469Z,4
2017-11-30T05:22:49.560Z,4
2017-11-30T05:23:59.367Z,4
2017-11-30T05:25:09.211Z,4
2017-11-30T05:26:18.478Z,4
2017-11-30T05:27:28.598Z,4
2017-11-30T05:28:38.405Z,4
2017-11-30T05:29:48.486Z,4
2017-11-30T05:30:58.601Z,4
2017-11-30T05:32:08.417Z,4
2017-11-30T05:33:18.517Z,4
2017-11-30T05:34:28.603Z,4
2017-11-30T05:35:38.666Z,4
2017-11-30T05:36:48.471Z,4
2017-11-30T05:37:58.009Z,4
2017-11-30T05:39:07.839Z,4
2017-11-30T05:40:17.961Z,4
2017-11-30T05:41:28.048Z,4
2017-11-30T05:42:37.876Z,4
2017-11-30T05:43:47.996Z,4
2017-11-30T05:44:58.097Z,4
2017-11-30T05:46:07.907Z,4
2017-11-30T05:47:17.975Z,0
2017-11-30T05:48:28.104Z,4
2017-11-30T05:49:37.652Z,0
2017-11-30T05:50:47.464Z,0
2017-11-30T05:51:57.558Z,0
2017-11-30T05:53:07.370Z,0
2017-11-30T05:54:17.238Z,0
2017-11-30T05:55:27.037Z,4
2017-11-30T05:56:37.113Z,4
2017-11-30T05:57:46.924Z,4
2017-11-30T05:58:56.730Z,4
2017-11-30T06:00:06.827Z,8
2017-11-30T06:01:16.636Z,4
2017-11-30T06:02:26.707Z,8
2017-11-30T06:03:36.257Z,8
2017-11-30T06:04:46.322Z,8
2017-11-30T06:05:55.924Z,8
2017-11-30T06:07:05.465Z,8
2017-11-30T06:08:15.293Z,12
2017-11-30T06:09:25.106Z,12
2017-11-30T06:10:35.193Z,16
2017-11-30T06:11:45.088Z,16
2017-11-30T06:12:55.180Z,16
2017-11-30T06:14:04.992Z,20
2017-11-30T06:15:14.540Z,24
2017-11-30T06:16:24.667Z,28
2017-11-30T06:17:34.467Z,32
2017-11-30T06:18:44.547Z,32
2017-11-30T06:19:54.635Z,36
2017-11-30T06:21:04.432Z,36
2017-11-30T06:22:14.519Z,44
2017-11-30T06:23:24.636Z,48
2017-11-30T06:24:35.740Z,56
2017-11-30T06:25:46.245Z,60
2017-11-30T06:26:56.325Z,64
2017-11-30T06:28:06.400Z,68
2017-11-30T06:29:16.206Z,76
2017-11-30T06:30:26.015Z,76
2017-11-30T06:31:36.091Z,84
2017-11-30T06:32:46.170Z,96
2017-11-30T06:33:55.714Z,116
2017-11-30T06:35:05.267Z,136
2017-11-30T06:36:14.822Z,152
2017-11-30T06:37:24.640Z,172
2017-11-30T06:38:34.732Z,188
2017-11-30T06:39:44.810Z,208
2017-11-30T06:40:54.912Z,232
2017-11-30T06:42:04.971Z,252
2017-11-30T06:43:14.795Z,260
2017-11-30T06:44:24.605Z,256
2017-11-30T06:45:33.887Z,260
2017-11-30T06:46:43.725Z,276
2017-11-30T06:47:53.551Z,316
2017-11-30T06:49:03.335Z,376
2017-11-30T06:50:13.413Z,432
2017-11-30T06:51:23.229Z,476
2017-11-30T06:52:33.362Z,484
2017-11-30T06:53:43.417Z,464
2017-11-30T06:54:53.233Z,468
2017-11-30T06:56:03.071Z,508
2017-11-30T06:57:12.881Z,596
2017-11-30T06:58:23.009Z,724
2017-11-30T06:59:33.070Z,872
2017-11-30T07:00:43.167Z,1004
2017-11-30T07:01:52.988Z,1104
2017-11-30T07:03:03.189Z,1168
2017-11-30T07:04:12.755Z,1172
2017-11-30T07:05:22.580Z,1160
2017-11-30T07:06:32.650Z,1148
2017-11-30T07:07:42.453Z,1128
2017-11-30T07:08:52.261Z,1080
2017-11-30T07:10:02.128Z,1036
2017-11-30T07:11:11.950Z,996
2017-11-30T07:12:22.035Z,984
2017-11-30T07:13:31.871Z,992
2017-11-30T07:14:41.953Z,1020
2017-11-30T07:15:51.764Z,1036
2017-11-30T07:17:01.837Z,1028
2017-11-30T07:18:11.919Z,964
2017-11-30T07:19:21.731Z,868
2017-11-30T07:20:31.547Z,780
2017-11-30T07:21:41.375Z,712
2017-11-30T07:22:51.455Z,672
2017-11-30T07:24:01.536Z,664
2017-11-30T07:25:11.098Z,684
2017-11-30T07:26:21.193Z,700
2017-11-30T07:27:31.321Z,728
2017-11-30T07:28:41.406Z,756
2017-11-30T07:29:51.507Z,768
2017-11-30T07:31:01.327Z,776
2017-11-30T07:32:11.413Z,788
2017-11-30T07:33:21.226Z,796
2017-11-30T07:34:31.049Z,800
2017-11-30T07:35:41.134Z,800
2017-11-30T07:36:51.210Z,800
2017-11-30T07:38:01.024Z,796
2017-11-30T07:39:10.857Z,804
2017-11-30T07:40:20.684Z,812
2017-11-30T07:41:30.498Z,820
2017-11-30T07:42:40.051Z,836
2017-11-30T07:43:50.112Z,856
2017-11-30T07:45:00.233Z,892
2017-11-30T07:46:11.290Z,928
2017-11-30T07:47:20.847Z,964
2017-11-30T07:48:30.644Z,980
2017-11-30T07:49:40.739Z,996
2017-11-30T07:50:50.562Z,1012
2017-11-30T07:52:00.652Z,1040
2017-11-30T07:53:10.475Z,1064
2017-11-30T07:54:20.542Z,1084
2017-11-30T07:55:30.619Z,1108
2017-11-30T07:56:40.520Z,1108
2017-11-30T07:57:50.341Z,1124
2017-11-30T07:59:00.415Z,1144
2017-11-30T08:00:10.495Z,1160
2017-11-30T08:01:20.299Z,1180
2017-11-30T08:02:30.373Z,1212
2017-11-30T08:03:40.452Z,1224
2017-11-30T08:04:50.024Z,1260
2017-11-30T08:06:00.103Z,1264
2017-11-30T08:07:10.182Z,1276
2017-11-30T08:08:19.989Z,1288
2017-11-30T08:09:29.851Z,1300
2017-11-30T08:10:39.677Z,1304
2017-11-30T08:11:49.497Z,1296
2017-11-30T08:12:59.583Z,1288
2017-11-30T08:14:08.897Z,1292
2017-11-30T08:15:18.977Z,1296
2017-11-30T08:16:28.795Z,1292
2017-11-30T08:17:38.862Z,1300
2017-11-30T08:18:48.950Z,1324
2017-11-30T08:19:58.817Z,1316
2017-11-30T08:21:08.621Z,1316
2017-11-30T08:22:18.152Z,1324
2017-11-30T08:23:27.975Z,1316
2017-11-30T08:24:37.806Z,1352
2017-11-30T08:25:47.896Z,1380
2017-11-30T08:26:57.697Z,1424
2017-11-30T08:28:07.248Z,1452
2017-11-30T08:29:17.341Z,1484
2017-11-30T08:30:27.416Z,1520
2017-11-30T08:31:37.500Z,1572
2017-11-30T08:32:47.290Z,1648
2017-11-30T08:33:57.434Z,1708
2017-11-30T08:35:07.530Z,1780
2017-11-30T08:36:17.061Z,1860
2017-11-30T08:37:26.922Z,1928
2017-11-30T08:38:36.715Z,2000
2017-11-30T08:39:46.795Z,2040
2017-11-30T08:40:56.604Z,2084
2017-11-30T08:42:06.679Z,2108
2017-11-30T08:43:16.807Z,2108
2017-11-30T08:44:26.338Z,2140
2017-11-30T08:45:36.404Z,2152
2017-11-30T08:46:45.946Z,2196
2017-11-30T08:47:56.038Z,2236
2017-11-30T08:49:05.886Z,2308
2017-11-30T08:50:15.718Z,2276
2017-11-30T08:51:25.529Z,2312
2017-11-30T08:52:35.639Z,2364
2017-11-30T08:53:45.728Z,2424
2017-11-30T08:54:55.873Z,2400
2017-11-30T08:56:05.977Z,2460
2017-11-30T08:57:16.063Z,2544
2017-11-30T08:58:25.903Z,2744
2017-11-30T08:59:35.712Z,2740
2017-11-30T09:00:45.788Z,3044
2017-11-30T09:01:55.595Z,3024
2017-11-30T09:03:05.674Z,3068
2017-11-30T09:04:15.753Z,3236
2017-11-30T09:05:25.829Z,3272
2017-11-30T09:06:35.632Z,3372
2017-11-30T09:07:45.482Z,3384
2017-11-30T09:08:55.024Z,3472
2017-11-30T09:10:04.879Z,3552
2017-11-30T09:11:14.694Z,3668
2017-11-30T09:12:24.496Z,3900
2017-11-30T09:13:34.344Z,4060
2017-11-30T09:14:44.155Z,4280
2017-11-30T09:15:54.227Z,4360
2017-11-30T09:17:04.047Z,4424
2017-11-30T09:18:13.587Z,4468
2017-11-30T09:19:23.407Z,4460
2017-11-30T09:20:33.217Z,4412
2017-11-30T09:21:42.546Z,4320
2017-11-30T09:22:52.087Z,4268
2017-11-30T09:24:01.937Z,4216
2017-11-30T09:25:12.007Z,4104
2017-11-30T09:26:22.076Z,3984
2017-11-30T09:27:32.219Z,3844
2017-11-30T09:28:42.080Z,3644
2017-11-30T09:29:51.912Z,3672
2017-11-30T09:31:01.993Z,3648
2017-11-30T09:32:11.542Z,3700
2017-11-30T09:33:21.602Z,3680
2017-11-30T09:34:31.422Z,3772
2017-11-30T09:35:41.235Z,3808
2017-11-30T09:36:51.057Z,3876
2017-11-30T09:38:00.874Z,3840
2017-11-30T09:39:11.079Z,3880
2017-11-30T09:40:20.883Z,3768
2017-11-30T09:41:30.690Z,3772
2017-11-30T09:42:40.236Z,3912
2017-11-30T09:43:49.793Z,4012
2017-11-30T09:44:59.597Z,3992
2017-11-30T09:46:09.706Z,3964
2017-11-30T09:47:19.525Z,3864
2017-11-30T09:48:29.061Z,3764
2017-11-30T09:49:39.163Z,3712
2017-11-30T09:50:49.238Z,3668
2017-11-30T09:51:59.046Z,3696
2017-11-30T09:53:08.853Z,3664
2017-11-30T09:54:18.951Z,3640
2017-11-30T09:55:28.773Z,3552
2017-11-30T09:56:37.850Z,3536
2017-11-30T09:57:47.693Z,3444
2017-11-30T09:58:57.785Z,3452
2017-11-30T10:00:07.617Z,3408
2017-11-30T10:01:17.164Z,3360
2017-11-30T10:02:27.233Z,3292
2017-11-30T10:03:37.312Z,3224
2017-11-30T10:04:47.135Z,3144
2017-11-30T10:05:57.250Z,3152
2017-11-30T10:07:07.345Z,3160
2017-11-30T10:08:17.465Z,3148
2017-11-30T10:09:26.776Z,3160
2017-11-30T10:10:36.304Z,3168
2017-11-30T10:11:46.385Z,3160
2017-11-30T10:12:55.951Z,3140
2017-11-30T10:14:05.502Z,3124
2017-11-30T10:15:15.599Z,3080
2017-11-30T10:16:25.676Z,3028
2017-11-30T10:17:35.223Z,2960
2017-11-30T10:18:46.659Z,2892
2017-11-30T10:19:56.734Z,2816
2017-11-30T10:21:07.069Z,2748
2017-11-30T10:22:16.871Z,2684
2017-11-30T10:23:26.956Z,2636
2017-11-30T10:24:37.032Z,2604
2017-11-30T10:25:46.902Z,2596
2017-11-30T10:26:56.994Z,2584
2017-11-30T10:28:06.807Z,2568
2017-11-30T10:29:16.632Z,2560
2017-11-30T10:30:26.736Z,2552
2017-11-30T10:31:36.940Z,2532
2017-11-30T10:32:47.225Z,2512
2017-11-30T10:33:58.027Z,2504
2017-11-30T10:35:08.805Z,2480
2017-11-30T10:36:18.823Z,2436
2017-11-30T10:37:28.796Z,2372
2017-11-30T10:38:38.725Z,2340
2017-11-30T10:39:48.591Z,2300
2017-11-30T10:40:58.140Z,2260
2017-11-30T10:42:08.248Z,2280
2017-11-30T10:43:18.358Z,2276
2017-11-30T10:44:28.449Z,2256
2017-11-30T10:45:38.490Z,2268
2017-11-30T10:46:48.619Z,2272
2017-11-30T10:47:58.948Z,2264
2017-11-30T10:49:10.153Z,2224
2017-11-30T10:50:20.244Z,2188
2017-11-30T10:51:29.794Z,2264
2017-11-30T10:52:40.963Z,2268
2017-11-30T10:53:50.779Z,2312
2017-11-30T10:55:00.583Z,2336
2017-11-30T10:56:10.405Z,2364
2017-11-30T10:57:20.013Z,2400
2017-11-30T10:58:29.552Z,2428
2017-11-30T10:59:39.397Z,2476
2017-11-30T11:00:48.947Z,2508
2017-11-30T11:01:58.775Z,2556
2017-11-30T11:03:08.942Z,2620
2017-11-30T11:04:18.495Z,2676
2017-11-30T11:05:28.591Z,2716
2017-11-30T11:06:38.726Z,2756
2017-11-30T11:07:48.799Z,2756
2017-11-30T11:08:58.691Z,2760
2017-11-30T11:10:09.701Z,2736
2017-11-30T11:11:19.262Z,2696
2017-11-30T11:12:29.091Z,2668
2017-11-30T11:13:39.177Z,2672
2017-11-30T11:14:49.071Z,2636
2017-11-30T11:15:58.894Z,2572
2017-11-30T11:17:09.024Z,2504
2017-11-30T11:18:19.098Z,2460
2017-11-30T11:19:28.391Z,2420
2017-11-30T11:20:39.187Z,2388
2017-11-30T11:21:49.246Z,2420
2017-11-30T11:22:59.083Z,2388
2017-11-30T11:24:10.291Z,2380
2017-11-30T11:25:20.114Z,2432
2017-11-30T11:26:30.355Z,2464
2017-11-30T11:27:40.428Z,2404
2017-11-30T11:28:50.242Z,2356
2017-11-30T11:30:00.351Z,2328
2017-11-30T11:31:09.906Z,2276
2017-11-30T11:32:19.772Z,2188
2017-11-30T11:33:29.599Z,2136
2017-11-30T11:34:39.421Z,2080
2017-11-30T11:35:49.228Z,1980
2017-11-30T11:36:59.332Z,1936
2017-11-30T11:38:09.193Z,1912
2017-11-30T11:39:19.293Z,1848
2017-11-30T11:40:29.108Z,1812
2017-11-30T11:41:38.912Z,1776
2017-11-30T11:42:49.015Z,1856
2017-11-30T11:43:58.614Z,1884
2017-11-30T11:45:08.688Z,1900
2017-11-30T11:46:18.507Z,1892
2017-11-30T11:47:28.066Z,1884
2017-11-30T11:48:38.152Z,1944
2017-11-30T11:49:48.258Z,1976
2017-11-30T11:50:58.351Z,2128
2017-11-30T11:52:09.297Z,2204
2017-11-30T11:53:19.098Z,2316
2017-11-30T11:54:28.652Z,2368
2017-11-30T11:55:38.748Z,2432
2017-11-30T11:56:48.832Z,2512
2017-11-30T11:57:58.398Z,2604
2017-11-30T11:59:08.480Z,2732
2017-11-30T12:00:18.305Z,2672
2017-11-30T12:01:27.939Z,2736
2017-11-30T12:02:38.084Z,2840
2017-11-30T12:03:48.159Z,2944
2017-11-30T12:04:58.285Z,2916
2017-11-30T12:06:08.411Z,2968
2017-11-30T12:07:18.324Z,2936
2017-11-30T12:08:27.883Z,3048
2017-11-30T12:09:37.686Z,3068
2017-11-30T12:10:47.766Z,2936
2017-11-30T12:11:57.845Z,2856
2017-11-30T12:13:07.808Z,2776
2017-11-30T12:14:17.623Z,2724
2017-11-30T12:15:27.720Z,2612
2017-11-30T12:16:37.543Z,2520
2017-11-30T12:17:47.108Z,2400
2017-11-30T12:18:56.457Z,2316
2017-11-30T12:20:06.583Z,2272
2017-11-30T12:21:17.017Z,2140
2017-11-30T12:22:26.855Z,2120
2017-11-30T12:23:36.957Z,2048
2017-11-30T12:24:46.839Z,1976
2017-11-30T12:25:56.662Z,1900
2017-11-30T12:27:06.761Z,1744
2017-11-30T12:28:16.572Z,1564
2017-11-30T12:29:26.671Z,1508
2017-11-30T12:30:36.496Z,1412
2017-11-30T12:31:46.624Z,1308
2017-11-30T12:32:56.434Z,1380
2017-11-30T12:34:06.277Z,1268
2017-11-30T12:35:15.847Z,1148
2017-11-30T12:36:25.987Z,1192
2017-11-30T12:37:35.544Z,1268
2017-11-30T12:38:45.352Z,1112
2017-11-30T12:39:55.197Z,1060
2017-11-30T12:41:05.289Z,924
2017-11-30T12:42:15.171Z,928
2017-11-30T12:43:24.976Z,956
2017-11-30T12:44:35.064Z,1052
2017-11-30T12:45:44.899Z,1068
2017-11-30T12:46:54.734Z,1080
2017-11-30T12:48:04.334Z,1088
2017-11-30T12:49:14.140Z,1096
2017-11-30T12:50:24.327Z,1096
2017-11-30T12:51:34.135Z,1124
2017-11-30T12:52:43.946Z,1148
2017-11-30T12:53:53.548Z,1116
2017-11-30T12:55:03.375Z,1268
2017-11-30T12:56:13.447Z,1240
2017-11-30T12:57:23.292Z,1204
2017-11-30T12:58:33.104Z,1228
2017-11-30T12:59:42.426Z,1240
2017-11-30T13:00:52.001Z,1312
2017-11-30T13:02:01.812Z,1232
2017-11-30T13:03:11.895Z,1172
2017-11-30T13:04:21.732Z,1224
2017-11-30T13:05:31.308Z,1180
2017-11-30T13:06:41.378Z,1084
2017-11-30T13:07:51.435Z,968
2017-11-30T13:09:01.215Z,972
2017-11-30T13:10:11.292Z,920
2017-11-30T13:11:21.486Z,904
2017-11-30T13:12:31.567Z,892
2017-11-30T13:13:41.371Z,856
2017-11-30T13:14:51.215Z,900
2017-11-30T13:16:01.273Z,916
2017-11-30T13:17:11.436Z,952
2017-11-30T13:18:21.517Z,944
2017-11-30T13:19:31.308Z,940
2017-11-30T13:20:41.361Z,1004
2017-11-30T13:21:51.434Z,1068
2017-11-30T13:23:01.963Z,1052
2017-11-30T13:24:12.022Z,1120
2017-11-30T13:25:22.072Z,1172
2017-11-30T13:26:33.335Z,1208
2017-11-30T13:27:43.142Z,1256
2017-11-30T13:28:52.994Z,1388
2017-11-30T13:30:02.530Z,1384
2017-11-30T13:31:12.360Z,1488
2017-11-30T13:32:22.432Z,1616
2017-11-30T13:33:32.246Z,1644
2017-11-30T13:34:41.851Z,1684
2017-11-30T13:35:51.679Z,1704
2017-11-30T13:37:01.511Z,1748
2017-11-30T13:38:11.358Z,1760
2017-11-30T13:39:21.445Z,1660
2017-11-30T13:40:31.605Z,1692
2017-11-30T13:41:41.727Z,1720
2017-11-30T13:42:51.525Z,1716
2017-11-30T13:44:01.586Z,1716
2017-11-30T13:45:11.681Z,1684
2017-11-30T13:46:21.785Z,1624
2017-11-30T13:47:31.851Z,1568
2017-11-30T13:48:41.691Z,1520
2017-11-30T13:49:51.476Z,1412
2017-11-30T13:51:01.528Z,1248
2017-11-30T13:52:11.390Z,1184
2017-11-30T13:53:21.204Z,1056
2017-11-30T13:54:31.272Z,1000
2017-11-30T13:55:41.318Z,1016
2017-11-30T13:56:51.155Z,944
2017-11-30T13:58:01.289Z,900
2017-11-30T13:59:11.339Z,812
2017-11-30T14:00:21.422Z,780
2017-11-30T14:01:31.233Z,724
2017-11-30T14:02:41.551Z,652
2017-11-30T14:03:51.756Z,656
2017-11-30T14:05:01.815Z,640
2017-11-30T14:06:11.895Z,592
2017-11-30T14:07:21.932Z,560
2017-11-30T14:08:31.491Z,528
2017-11-30T14:09:42.665Z,476
2017-11-30T14:10:52.205Z,448
2017-11-30T14:12:02.260Z,424
2017-11-30T14:13:12.360Z,408
2017-11-30T14:14:21.880Z,364
2017-11-30T14:15:31.419Z,316
2017-11-30T14:16:40.974Z,280
2017-11-30T14:17:51.053Z,252
2017-11-30T14:19:01.101Z,240
2017-11-30T14:20:10.886Z,260
2017-11-30T14:21:20.693Z,276
2017-11-30T14:22:30.750Z,280
2017-11-30T14:23:40.805Z,308
2017-11-30T14:24:50.681Z,320
2017-11-30T14:26:00.490Z,328
2017-11-30T14:27:10.549Z,288
2017-11-30T14:28:20.342Z,272
2017-11-30T14:29:30.168Z,236
2017-11-30T14:30:40.223Z,200
2017-11-30T14:31:50.021Z,180
2017-11-30T14:33:00.545Z,164
2017-11-30T14:34:10.369Z,176
2017-11-30T14:35:20.425Z,188
2017-11-30T14:36:30.025Z,180
2017-11-30T14:37:40.135Z,176
2017-11-30T14:38:50.204Z,172
2017-11-30T14:40:00.265Z,148
2017-11-30T14:41:10.325Z,116
2017-11-30T14:42:20.192Z,100
2017-11-30T14:43:30.263Z,100
2017-11-30T14:44:40.374Z,92
2017-11-30T14:45:50.183Z,92
2017-11-30T14:46:59.962Z,92
2017-11-30T14:48:09.815Z,84
2017-11-30T14:49:19.866Z,76
2017-11-30T14:50:29.417Z,68
2017-11-30T14:51:39.245Z,80
2017-11-30T14:52:48.796Z,80
2017-11-30T14:53:58.907Z,80
2017-11-30T14:55:08.962Z,76
2017-11-30T14:56:18.507Z,72
2017-11-30T14:57:28.037Z,68
2017-11-30T14:58:37.834Z,64
2017-11-30T14:59:47.445Z,52
2017-11-30T15:00:57.512Z,48
2017-11-30T15:02:07.314Z,40
2017-11-30T15:03:17.099Z,36
2017-11-30T15:04:26.992Z,32
2017-11-30T15:05:37.140Z,36
2017-11-30T15:06:46.944Z,36
2017-11-30T15:07:57.032Z,32
2017-11-30T15:09:07.089Z,28
2017-11-30T15:10:17.156Z,28
2017-11-30T15:11:26.670Z,20
2017-11-30T15:12:36.459Z,20
2017-11-30T15:13:46.519Z,20
2017-11-30T15:14:56.569Z,16
2017-11-30T15:16:06.628Z,12
2017-11-30T15:17:16.268Z,12
2017-11-30T15:18:26.335Z,8
2017-11-30T15:19:36.391Z,8
2017-11-30T15:20:46.193Z,8
2017-11-30T15:21:56.309Z,4
2017-11-30T15:23:05.722Z,8
2017-11-30T15:24:15.512Z,4
2017-11-30T15:25:25.328Z,8
2017-11-30T15:26:35.370Z,4
2017-11-30T15:27:45.435Z,0
2017-11-30T15:28:55.535Z,4
2017-11-30T15:30:05.612Z,4
2017-11-30T15:31:15.677Z,0
2017-11-30T15:32:25.505Z,4
2017-11-30T15:33:35.361Z,4
2017-11-30T15:34:45.494Z,4
2017-11-30T15:35:55.290Z,0
2017-11-30T15:37:05.093Z,0
2017-11-30T15:38:15.208Z,0
2017-11-30T15:39:24.490Z,0
2017-11-30T15:40:34.294Z,0
2017-11-30T15:41:44.277Z,0
2017-11-30T15:42:54.395Z,0
2017-11-30T15:44:04.249Z,0
2017-11-30T15:45:13.928Z,0
2017-11-30T15:46:23.721Z,0
2017-11-30T15:47:33.852Z,0
2017-11-30T15:48:43.999Z,0
2017-11-30T15:49:53.811Z,0
2017-11-30T15:51:03.898Z,0
2017-11-30T15:52:14.055Z,0
2017-11-30T15:53:24.463Z,0
2017-11-30T15:54:34.267Z,0
2017-11-30T15:55:44.407Z,0
2017-11-30T15:56:54.483Z,0
2017-11-30T15:58:04.575Z,0
2017-11-30T15:59:14.707Z,0
2017-11-30T16:00:24.784Z,0
2017-11-30T16:01:34.594Z,0
2017-11-30T16:02:44.397Z,0
2017-11-30T16:03:54.212Z,0
2017-11-30T16:05:04.292Z,0
2017-11-30T16:06:14.358Z,0
2017-11-30T16:07:24.181Z,0
2017-11-30T16:08:34.291Z,0
2017-11-30T16:09:44.374Z,0
2017-11-30T16:10:54.835Z,0
2017-11-30T16:12:04.384Z,0
2017-11-30T16:13:15.152Z,0
2017-11-30T16:14:25.420Z,0
2017-11-30T16:15:35.567Z,0
2017-11-30T16:16:45.685Z,0
2017-11-30T16:17:55.496Z,0
2017-11-30T16:19:05.562Z,0
2017-11-30T16:20:15.607Z,0
2017-11-30T16:21:25.662Z,0
2017-11-30T16:22:35.766Z,0
2017-11-30T16:23:45.880Z,0
2017-11-30T16:24:55.920Z,0
2017-11-30T16:26:05.982Z,0
2017-11-30T16:27:16.052Z,0
2017-11-30T16:28:26.094Z,0
2017-11-30T16:29:35.887Z,0
2017-11-30T16:30:45.692Z,0
2017-11-30T16:31:55.768Z,0
2017-11-30T16:33:05.840Z,0
2017-11-30T16:34:15.717Z,0
2017-11-30T16:35:25.797Z,0
2017-11-30T16:36:35.589Z,0
2017-11-30T16:37:45.407Z,0
2017-11-30T16:38:55.255Z,0
2017-11-30T16:40:05.359Z,0
2017-11-30T16:41:15.171Z,0
2017-11-30T16:42:25.240Z,0
2017-11-30T16:43:35.325Z,0
2017-11-30T16:44:45.549Z,0
2017-11-30T16:45:55.666Z,0
2017-11-30T16:47:05.190Z,0
2017-11-30T16:48:15.020Z,0
2017-11-30T16:49:24.822Z,0
2017-11-30T16:50:34.904Z,0
2017-11-30T16:51:45.078Z,0
2017-11-30T16:52:55.154Z,0